Terminal Aerodrome Forecast
Issued by NWS Wakefield, VA

Home | Current Version | Previous Version | Text Only | Print | Product List | Glossary On
Versions: 1 2 3 4 5 6 7 8 9 10 11 12 13
000
FTUS41 KAKQ 240500
TAFSBY
TAF
KSBY 240538Z 2406/2506 15013G20KT 4SM -RA BR BKN015
     FM240900 18015G23KT P6SM BKN007
     FM241500 19014G21KT P6SM BKN035=

USA.gov is the U.S. government's official web portal to all federal, state and local government web resources and services.